createdAt,value
2017-05-31T18:01:46.063Z,12743
2017-05-31T18:01:59.777Z,12517
2017-05-31T18:02:19.527Z,12306
2017-05-31T18:02:39.158Z,12102
2017-05-31T18:02:58.708Z,11906
2017-05-31T18:03:15.349Z,12036
2017-05-31T18:03:29.221Z,11882
2017-05-31T18:03:46.037Z,11995
2017-05-31T18:04:00.031Z,11841
2017-05-31T18:04:13.822Z,11060
2017-05-31T18:04:36.422Z,10999
2017-05-31T18:04:53.368Z,11409
2017-05-31T18:05:10.718Z,11300
2017-05-31T18:05:30.505Z,11183
2017-05-31T18:05:44.531Z,11061
2017-05-31T18:05:58.460Z,11022
2017-05-31T18:06:09.651Z,10945
2017-05-31T18:06:21.781Z,10527
2017-05-31T18:06:35.672Z,10453
2017-05-31T18:06:49.686Z,10412
2017-05-31T18:07:09.729Z,10310
2017-05-31T18:07:29.529Z,10226
2017-05-31T18:07:40.558Z,10166
2017-05-31T18:07:54.442Z,10097
2017-05-31T18:08:11.190Z,10002
2017-05-31T18:08:28.100Z,9961
2017-05-31T18:08:42.058Z,9893
2017-05-31T18:09:04.610Z,9799
2017-05-31T18:09:18.619Z,9749
2017-05-31T18:09:33.391Z,9670
2017-05-31T18:09:50.126Z,9593
2017-05-31T18:10:04.125Z,9543
2017-05-31T18:10:18.158Z,9456
2017-05-31T18:10:32.392Z,9412
2017-05-31T18:10:46.365Z,9380
2017-05-31T18:11:03.292Z,9284
2017-05-31T18:11:20.146Z,9242
2017-05-31T18:11:39.899Z,9183
2017-05-31T18:12:02.454Z,9069
2017-05-31T18:12:19.149Z,9019
2017-05-31T18:12:33.154Z,8967
2017-05-31T18:12:50.079Z,8907
2017-05-31T18:13:04.045Z,8854
2017-05-31T18:13:23.595Z,8787
2017-05-31T18:13:46.218Z,8718
2017-05-31T18:14:03.030Z,8639
2017-05-31T18:14:19.859Z,8552
2017-05-31T18:14:33.867Z,8511
2017-05-31T18:14:47.858Z,8459
2017-05-31T18:15:01.626Z,8388
2017-05-31T18:15:15.282Z,8345
2017-05-31T18:15:32.041Z,8303
2017-05-31T18:15:49.725Z,8243
2017-05-31T18:16:04.703Z,8191
2017-05-31T18:16:18.549Z,8148
2017-05-31T18:16:29.654Z,8094
2017-05-31T18:16:43.566Z,8071
2017-05-31T18:17:06.046Z,7992
2017-05-31T18:17:19.949Z,7958
2017-05-31T18:17:39.620Z,7888
2017-05-31T18:17:50.724Z,7853
2017-05-31T18:18:07.524Z,7811
2017-05-31T18:18:21.551Z,7768
2017-05-31T18:18:44.041Z,7699
2017-05-31T18:19:00.963Z,7639
2017-05-31T18:19:20.567Z,7560
2017-05-31T18:19:43.090Z,7502
2017-05-31T18:19:54.091Z,7458
2017-05-31T18:20:13.810Z,7400
2017-05-31T18:20:27.942Z,7329
2017-05-31T18:20:41.819Z,7288
2017-05-31T18:20:55.990Z,7227
2017-05-31T18:21:12.624Z,7169
2017-05-31T18:21:29.305Z,7082
2017-05-31T18:21:49.864Z,7025
2017-05-31T18:22:06.783Z,6948
2017-05-31T18:22:23.935Z,6871
2017-05-31T18:22:40.744Z,6794
2017-05-31T18:22:54.764Z,6754
2017-05-31T18:23:08.626Z,6675
2017-05-31T18:23:29.244Z,6590
2017-05-31T18:23:45.924Z,6531
2017-05-31T18:24:02.647Z,6472
2017-05-31T18:24:19.554Z,6395
2017-05-31T18:24:33.484Z,6317
2017-05-31T18:24:50.246Z,6276
2017-05-31T18:25:12.737Z,6173
2017-05-31T18:25:29.527Z,6161
2017-05-31T18:25:49.007Z,6074
2017-05-31T18:26:08.747Z,6015
2017-05-31T18:26:25.648Z,5975
2017-05-31T18:26:42.363Z,5878
2017-05-31T18:26:56.270Z,5864
2017-05-31T18:27:07.367Z,5813
2017-05-31T18:27:24.311Z,5744
2017-05-31T18:27:41.175Z,5695
2017-05-31T18:27:57.959Z,5655
2017-05-31T18:28:08.906Z,5719
2017-05-31T18:28:25.684Z,5679
2017-05-31T18:28:36.612Z,5627
2017-05-31T18:28:56.612Z,5578
2017-05-31T18:29:07.670Z,5516
